createdAt,value
2023-03-13T00:00:12.265Z,11.40
2023-03-13T00:02:42.410Z,11.40
2023-03-13T00:05:10.992Z,11.40
2023-03-13T00:07:39.715Z,11.40
2023-03-13T00:10:09.045Z,11.40
2023-03-13T00:12:37.321Z,11.40
2023-03-13T00:15:06.068Z,11.40
2023-03-13T00:17:34.435Z,11.40
2023-03-13T00:20:05.274Z,11.40
2023-03-13T00:22:33.543Z,11.40
2023-03-13T00:25:01.795Z,11.40
2023-03-13T00:27:33.999Z,11.40
2023-03-13T00:30:02.388Z,11.40
2023-03-13T00:32:31.001Z,11.40
2023-03-13T00:34:59.648Z,11.40
2023-03-13T00:37:29.600Z,11.50
2023-03-13T00:39:57.902Z,11.50
2023-03-13T00:42:26.391Z,11.50
2023-03-13T00:44:56.867Z,11.50
2023-03-13T00:47:25.527Z,11.50
2023-03-13T00:49:54.040Z,11.60
2023-03-13T00:52:23.623Z,11.60
2023-03-13T00:54:53.282Z,11.60
2023-03-13T00:57:21.771Z,11.60
2023-03-13T00:59:50.272Z,11.70
2023-03-13T01:02:18.728Z,11.70
2023-03-13T01:04:47.076Z,11.70
2023-03-13T01:07:15.369Z,11.80
2023-03-13T01:09:43.759Z,11.80
2023-03-13T01:12:13.424Z,11.80
2023-03-13T01:14:41.742Z,11.90
2023-03-13T01:17:10.369Z,11.90
2023-03-13T01:19:38.914Z,11.90
2023-03-13T01:22:11.218Z,11.90
2023-03-13T01:24:39.714Z,11.90
2023-03-13T01:27:08.098Z,11.90
2023-03-13T01:29:37.779Z,11.90
2023-03-13T01:32:06.937Z,11.90
2023-03-13T01:34:35.649Z,11.80
2023-03-13T01:37:04.039Z,11.80
2023-03-13T01:39:32.333Z,11.80
2023-03-13T01:42:00.760Z,11.70
2023-03-13T01:44:29.308Z,11.60
2023-03-13T01:46:59.367Z,11.50
2023-03-13T01:49:30.761Z,11.40
2023-03-13T01:52:11.749Z,11.20
2023-03-13T01:54:50.717Z,11.10
2023-03-13T01:57:25.124Z,11.00
2023-03-13T01:59:58.009Z,10.90
2023-03-13T02:02:28.531Z,10.80
2023-03-13T02:05:01.659Z,10.70
2023-03-13T02:07:35.953Z,10.70
2023-03-13T02:10:04.929Z,10.70
2023-03-13T02:12:35.779Z,10.70
2023-03-13T02:15:07.381Z,10.60
2023-03-13T02:17:38.459Z,10.70
2023-03-13T02:20:08.220Z,10.70
2023-03-13T02:22:47.500Z,10.80
2023-03-13T02:25:29.302Z,10.90
2023-03-13T02:28:02.856Z,11.00
2023-03-13T02:30:34.599Z,11.10
2023-03-13T02:33:05.513Z,11.10
2023-03-13T02:35:36.959Z,11.20
2023-03-13T02:38:11.893Z,11.30
2023-03-13T02:40:45.531Z,11.40
2023-03-13T02:43:17.776Z,11.40
2023-03-13T02:46:01.893Z,11.50
2023-03-13T02:48:37.348Z,11.50
2023-03-13T02:51:09.501Z,11.60
2023-03-13T02:53:39.068Z,11.60
2023-03-13T02:56:09.504Z,11.60
2023-03-13T02:58:49.713Z,11.70
2023-03-13T03:01:20.332Z,11.70
2023-03-13T03:03:48.952Z,11.80
2023-03-13T03:06:17.384Z,11.80
2023-03-13T03:08:47.092Z,11.90
2023-03-13T03:11:16.854Z,12.00
2023-03-13T03:13:48.117Z,12.00
2023-03-13T03:16:19.585Z,12.10
2023-03-13T03:18:48.484Z,12.10
2023-03-13T03:21:17.429Z,12.10
2023-03-13T03:23:45.853Z,12.10
2023-03-13T03:26:14.268Z,12.20
2023-03-13T03:28:43.971Z,12.20
2023-03-13T03:31:16.754Z,12.20
2023-03-13T03:33:46.201Z,12.20
2023-03-13T03:36:19.284Z,12.20
2023-03-13T03:38:48.356Z,12.30
2023-03-13T03:41:20.388Z,12.30
2023-03-13T03:43:50.733Z,12.30
2023-03-13T03:46:22.699Z,12.30
2023-03-13T03:48:51.273Z,12.30
2023-03-13T03:51:19.531Z,12.30
2023-03-13T03:53:48.925Z,12.20
2023-03-13T03:56:17.284Z,12.20
2023-03-13T03:58:52.556Z,12.30
2023-03-13T04:01:43.169Z,12.30
2023-03-13T04:04:11.721Z,12.20
2023-03-13T04:06:42.370Z,12.20
2023-03-13T04:09:11.441Z,12.30
2023-03-13T04:11:40.338Z,12.30
2023-03-13T04:14:12.180Z,12.30
2023-03-13T04:16:40.701Z,12.30
2023-03-13T04:19:09.407Z,12.30
2023-03-13T04:21:38.089Z,12.30
2023-03-13T04:24:10.781Z,12.30
2023-03-13T04:26:41.766Z,12.30
2023-03-13T04:29:11.425Z,12.30
2023-03-13T04:32:00.099Z,12.30
2023-03-13T04:34:54.776Z,12.30
2023-03-13T04:37:40.456Z,12.30
2023-03-13T04:40:23.922Z,12.30
2023-03-13T04:42:54.755Z,12.30
2023-03-13T04:45:42.906Z,12.30
2023-03-13T04:48:25.858Z,12.40
2023-03-13T04:51:04.084Z,12.40
2023-03-13T04:53:49.920Z,12.40
2023-03-13T04:56:43.702Z,12.30
2023-03-13T04:59:21.147Z,12.00
2023-03-13T05:02:14.088Z,11.80
2023-03-13T05:05:01.167Z,11.50
2023-03-13T05:07:52.397Z,11.40
2023-03-13T05:10:48.407Z,11.40
2023-03-13T05:13:46.107Z,11.30
2023-03-13T05:16:29.233Z,11.40
2023-03-13T05:19:18.042Z,11.40
2023-03-13T05:22:08.368Z,11.40
2023-03-13T05:24:55.329Z,11.40
2023-03-13T05:27:32.909Z,11.40
2023-03-13T05:30:30.506Z,11.40
2023-03-13T05:33:14.506Z,11.50
2023-03-13T05:35:52.765Z,11.50
2023-03-13T05:38:28.803Z,11.50
2023-03-13T05:41:07.281Z,11.60
2023-03-13T05:43:45.747Z,11.60
2023-03-13T05:46:31.059Z,11.60
2023-03-13T05:49:16.996Z,11.70
2023-03-13T05:52:10.593Z,11.70
2023-03-13T05:55:06.575Z,11.70
2023-03-13T05:57:47.247Z,11.80
2023-03-13T06:00:23.962Z,11.80
2023-03-13T06:03:21.204Z,11.80
2023-03-13T06:05:59.110Z,11.80
2023-03-13T06:08:37.308Z,11.90
2023-03-13T06:11:06.536Z,11.90
2023-03-13T06:13:35.651Z,11.90
2023-03-13T06:16:26.996Z,11.90
2023-03-13T06:18:59.700Z,12.00
2023-03-13T06:21:29.727Z,12.00
2023-03-13T06:23:59.479Z,12.00
2023-03-13T06:26:27.805Z,12.00
2023-03-13T06:28:56.419Z,12.10
2023-03-13T06:31:27.523Z,12.10
2023-03-13T06:33:56.306Z,12.10
2023-03-13T06:36:25.324Z,12.10
2023-03-13T06:38:53.735Z,12.10
2023-03-13T06:41:23.460Z,12.20
2023-03-13T06:43:53.995Z,12.20
2023-03-13T06:46:24.318Z,12.20
2023-03-13T06:48:53.157Z,12.30
2023-03-13T06:51:23.215Z,12.30
2023-03-13T06:53:52.570Z,12.40
2023-03-13T06:56:21.789Z,12.40
2023-03-13T06:58:51.806Z,12.40
2023-03-13T07:01:20.605Z,12.40
2023-03-13T07:03:49.742Z,12.50
2023-03-13T07:06:18.485Z,12.50
2023-03-13T07:08:46.974Z,12.50
2023-03-13T07:11:16.082Z,12.60
2023-03-13T07:13:44.516Z,12.60
2023-03-13T07:16:14.788Z,12.60
2023-03-13T07:18:45.088Z,12.60
2023-03-13T07:21:14.588Z,12.60
2023-03-13T07:23:43.098Z,12.60
2023-03-13T07:26:14.379Z,12.70
2023-03-13T07:28:42.849Z,12.70
2023-03-13T07:31:15.690Z,12.80
2023-03-13T07:33:45.894Z,12.80
2023-03-13T07:36:15.972Z,12.80
2023-03-13T07:38:47.535Z,12.80
2023-03-13T07:41:16.190Z,12.90
2023-03-13T07:43:44.710Z,12.90
2023-03-13T07:46:18.614Z,12.90
2023-03-13T07:48:47.631Z,13.00
2023-03-13T07:51:18.400Z,13.00
2023-03-13T07:53:47.969Z,13.10
2023-03-13T07:56:18.427Z,13.20
2023-03-13T07:58:47.265Z,13.20
2023-03-13T08:01:20.137Z,13.30
2023-03-13T08:03:50.874Z,13.40
2023-03-13T08:06:23.357Z,13.50
2023-03-13T08:08:52.188Z,13.60
2023-03-13T08:11:24.581Z,13.70
2023-03-13T08:13:53.527Z,13.70
2023-03-13T08:16:24.814Z,13.80
2023-03-13T08:18:56.598Z,13.90
2023-03-13T08:21:27.666Z,14.00
2023-03-13T08:23:57.950Z,14.10
2023-03-13T08:26:29.065Z,14.10
2023-03-13T08:28:59.610Z,14.10
2023-03-13T08:31:32.036Z,14.20
2023-03-13T08:34:00.922Z,14.20
2023-03-13T08:36:30.710Z,14.30
2023-03-13T08:39:00.617Z,14.30
2023-03-13T08:41:30.472Z,14.40
2023-03-13T08:43:59.393Z,14.50
2023-03-13T08:46:30.149Z,14.60
2023-03-13T08:48:58.675Z,14.70
2023-03-13T08:51:28.882Z,14.80
2023-03-13T08:53:58.393Z,14.90
2023-03-13T08:56:30.394Z,15.00
2023-03-13T08:59:00.285Z,15.30
2023-03-13T09:01:31.837Z,15.50
2023-03-13T09:04:04.298Z,15.70
2023-03-13T09:06:33.508Z,15.80
2023-03-13T09:09:02.247Z,15.90
2023-03-13T09:11:30.957Z,16.00
2023-03-13T09:14:00.217Z,16.10
2023-03-13T09:16:31.562Z,16.10
2023-03-13T09:19:00.364Z,16.10
2023-03-13T09:21:31.027Z,16.20
2023-03-13T09:24:00.089Z,16.30
2023-03-13T09:26:29.238Z,16.50
2023-03-13T09:28:57.880Z,16.60
2023-03-13T09:31:27.780Z,16.80
2023-03-13T09:33:57.764Z,17.00
2023-03-13T09:36:26.705Z,17.20
2023-03-13T09:38:57.462Z,17.30
2023-03-13T09:41:31.287Z,17.40
2023-03-13T09:44:06.518Z,17.50
2023-03-13T09:46:41.047Z,17.50
2023-03-13T09:49:19.310Z,17.70
2023-03-13T09:51:53.371Z,17.80
2023-03-13T09:54:26.809Z,17.90
2023-03-13T09:56:58.560Z,18.00
2023-03-13T09:59:34.420Z,18.10
2023-03-13T10:02:16.507Z,18.30
2023-03-13T10:04:53.528Z,18.50
2023-03-13T10:07:22.037Z,18.60
2023-03-13T10:09:50.285Z,18.60
2023-03-13T10:12:21.539Z,18.60
2023-03-13T10:15:01.101Z,18.60
2023-03-13T10:17:33.488Z,18.60
2023-03-13T10:20:15.814Z,18.60
2023-03-13T10:22:48.987Z,18.60
2023-03-13T10:25:26.803Z,18.50
2023-03-13T10:27:55.948Z,18.50
2023-03-13T10:30:26.600Z,18.30
2023-03-13T10:32:59.213Z,18.30
2023-03-13T10:35:35.648Z,18.20
2023-03-13T10:38:06.944Z,18.10
2023-03-13T10:40:35.470Z,18.20
2023-03-13T10:43:06.411Z,18.40
2023-03-13T10:45:37.807Z,18.60
2023-03-13T10:48:15.658Z,18.70
2023-03-13T10:50:48.238Z,18.90
2023-03-13T10:53:24.311Z,19.10
2023-03-13T10:55:55.426Z,19.40
2023-03-13T10:58:30.756Z,19.80
2023-03-13T11:01:16.701Z,20.10
2023-03-13T11:03:46.122Z,20.40
2023-03-13T11:06:31.081Z,20.50
2023-03-13T11:09:14.010Z,20.80
2023-03-13T11:11:47.280Z,21.10
2023-03-13T11:14:21.266Z,21.10
2023-03-13T11:16:52.101Z,21.50
2023-03-13T11:19:59.356Z,21.70
2023-03-13T11:22:52.783Z,22.00
2023-03-13T11:25:27.664Z,22.20
2023-03-13T11:28:23.990Z,22.60
2023-03-13T11:31:15.400Z,23.00
2023-03-13T11:33:53.513Z,23.50
2023-03-13T11:36:28.760Z,23.90
2023-03-13T11:39:12.608Z,24.30
2023-03-13T11:41:53.492Z,24.60
2023-03-13T11:44:30.599Z,24.90
2023-03-13T11:47:15.464Z,25.00
2023-03-13T11:49:58.901Z,25.20
2023-03-13T11:52:52.630Z,25.30
2023-03-13T11:55:34.083Z,25.30
2023-03-13T11:58:16.127Z,25.10
2023-03-13T12:00:50.564Z,25.00
2023-03-13T12:03:23.603Z,25.10
2023-03-13T12:05:56.160Z,25.40
2023-03-13T12:08:30.256Z,25.70
2023-03-13T12:11:10.793Z,26.00
2023-03-13T12:13:42.814Z,26.30
2023-03-13T12:16:15.626Z,26.60
2023-03-13T12:18:47.014Z,26.90
2023-03-13T12:21:23.191Z,27.20
2023-03-13T12:23:58.736Z,27.40
2023-03-13T12:26:36.655Z,27.50
2023-03-13T12:29:11.741Z,27.50
2023-03-13T12:31:44.177Z,27.30
2023-03-13T12:34:19.604Z,26.80
2023-03-13T12:36:52.297Z,26.40
2023-03-13T12:39:29.920Z,26.00
2023-03-13T12:42:11.630Z,25.50
2023-03-13T12:44:41.119Z,25.40
2023-03-13T12:47:15.512Z,25.30
2023-03-13T12:50:15.023Z,25.20
2023-03-13T12:53:14.853Z,24.90
2023-03-13T12:56:01.045Z,24.50
2023-03-13T12:58:42.048Z,24.30
2023-03-13T13:01:18.725Z,24.40
2023-03-13T13:03:54.498Z,24.60
2023-03-13T13:06:25.621Z,25.00
2023-03-13T13:09:08.721Z,25.20
2023-03-13T13:11:48.563Z,25.30
2023-03-13T13:14:59.139Z,25.10
2023-03-13T13:18:06.946Z,24.80
2023-03-13T13:20:39.257Z,24.40
2023-03-13T13:23:26.941Z,24.30
2023-03-13T13:25:56.818Z,24.20
2023-03-13T13:28:35.326Z,24.20
2023-03-13T13:31:38.871Z,24.30
2023-03-13T13:34:08.582Z,24.80
2023-03-13T13:36:43.703Z,25.40
2023-03-13T13:39:38.637Z,25.90
2023-03-13T13:42:46.739Z,25.90
2023-03-13T13:45:37.636Z,26.00
2023-03-13T13:48:25.389Z,26.10
2023-03-13T13:51:29.857Z,26.20
2023-03-13T13:54:01.335Z,26.40
2023-03-13T13:56:45.030Z,26.90
2023-03-13T13:59:31.632Z,27.70
2023-03-13T14:02:25.062Z,28.50
2023-03-13T14:05:07.750Z,29.00
2023-03-13T14:07:50.699Z,29.70
2023-03-13T14:10:43.908Z,30.30
2023-03-13T14:13:17.862Z,30.60
2023-03-13T14:15:48.243Z,30.90
2023-03-13T14:18:22.844Z,31.20
2023-03-13T14:20:57.578Z,31.10
2023-03-13T14:23:39.934Z,31.00
2023-03-13T14:26:17.741Z,30.60
2023-03-13T14:28:48.814Z,30.20
2023-03-13T14:31:26.924Z,30.10
2023-03-13T14:33:56.525Z,30.20
2023-03-13T14:36:25.211Z,30.20
2023-03-13T14:38:56.156Z,30.20
2023-03-13T14:41:30.399Z,30.00
2023-03-13T14:44:06.500Z,29.70
2023-03-13T14:46:37.194Z,29.30
2023-03-13T14:49:19.295Z,29.40
2023-03-13T14:51:51.016Z,29.30
2023-03-13T14:54:28.164Z,29.40
2023-03-13T14:57:16.217Z,29.80
2023-03-13T14:59:47.692Z,30.30
2023-03-13T15:02:29.953Z,30.40
2023-03-13T15:05:01.320Z,30.10
2023-03-13T15:07:38.619Z,30.20
2023-03-13T15:10:21.417Z,29.90
2023-03-13T15:12:52.035Z,29.50
2023-03-13T15:15:21.117Z,28.70
2023-03-13T15:17:49.598Z,27.90
2023-03-13T15:20:19.264Z,27.20
2023-03-13T15:22:47.799Z,26.50
2023-03-13T15:25:18.536Z,26.00
2023-03-13T15:27:47.418Z,26.00
2023-03-13T15:30:18.975Z,26.40
2023-03-13T15:32:48.083Z,27.20
2023-03-13T15:35:27.231Z,28.20
2023-03-13T15:37:56.489Z,29.00
2023-03-13T15:40:25.656Z,29.30
2023-03-13T15:42:54.335Z,29.40
2023-03-13T15:45:24.217Z,29.30
2023-03-13T15:47:52.466Z,29.00
2023-03-13T15:50:25.569Z,28.70
2023-03-13T15:52:54.248Z,28.40
2023-03-13T15:55:22.647Z,28.00
2023-03-13T15:57:52.398Z,27.50
2023-03-13T16:00:24.444Z,26.80
2023-03-13T16:02:53.230Z,26.10
2023-03-13T16:05:21.428Z,25.40
2023-03-13T16:07:50.134Z,24.80
2023-03-13T16:10:24.643Z,24.30
2023-03-13T16:12:53.426Z,23.80
2023-03-13T16:15:23.017Z,23.50
2023-03-13T16:17:51.461Z,23.20
2023-03-13T16:20:21.961Z,22.70
2023-03-13T16:22:53.314Z,22.40
2023-03-13T16:25:22.875Z,22.30
2023-03-13T16:27:53.539Z,22.00
2023-03-13T16:30:26.484Z,21.90
2023-03-13T16:32:54.928Z,21.70
2023-03-13T16:35:23.678Z,21.50
2023-03-13T16:37:52.257Z,21.50
2023-03-13T16:40:23.024Z,21.40
2023-03-13T16:42:51.367Z,21.30
2023-03-13T16:45:20.145Z,21.20
2023-03-13T16:47:50.215Z,21.10
2023-03-13T16:50:27.941Z,21.00
2023-03-13T16:52:56.626Z,21.00
2023-03-13T16:55:28.757Z,20.90
2023-03-13T16:57:58.496Z,20.90
2023-03-13T17:00:28.858Z,20.70
2023-03-13T17:02:58.905Z,20.80
2023-03-13T17:05:28.449Z,20.70
2023-03-13T17:07:56.941Z,20.70
2023-03-13T17:10:28.168Z,20.70
2023-03-13T17:12:56.752Z,20.60
2023-03-13T17:15:27.210Z,20.40
2023-03-13T17:17:56.140Z,20.30
2023-03-13T17:20:28.703Z,20.10
2023-03-13T17:22:57.816Z,19.90
2023-03-13T17:25:27.012Z,19.90
2023-03-13T17:27:55.396Z,19.80
2023-03-13T17:30:26.333Z,19.70
2023-03-13T17:32:55.462Z,19.50
2023-03-13T17:35:25.766Z,19.30
2023-03-13T17:37:54.348Z,18.70
2023-03-13T17:40:25.088Z,16.70
2023-03-13T17:42:53.754Z,15.50
2023-03-13T17:45:22.039Z,14.40
2023-03-13T17:47:50.439Z,14.10
2023-03-13T17:50:29.155Z,13.70
2023-03-13T17:52:57.564Z,13.70
2023-03-13T17:55:25.840Z,13.80
2023-03-13T17:57:54.219Z,13.80
2023-03-13T18:00:25.040Z,13.80
2023-03-13T18:02:53.528Z,13.80
2023-03-13T18:05:22.273Z,13.70
2023-03-13T18:07:52.303Z,13.60
2023-03-13T18:10:23.604Z,13.50
2023-03-13T18:12:52.927Z,13.40
2023-03-13T18:15:22.534Z,13.40
2023-03-13T18:17:51.642Z,13.50
2023-03-13T18:20:22.411Z,13.50
2023-03-13T18:22:52.084Z,13.60
2023-03-13T18:25:20.827Z,13.70
2023-03-13T18:27:49.369Z,13.70
2023-03-13T18:30:20.749Z,13.80
2023-03-13T18:32:49.797Z,13.90
2023-03-13T18:35:19.126Z,13.90
2023-03-13T18:37:48.875Z,13.90
2023-03-13T18:40:20.964Z,13.90
2023-03-13T18:42:49.468Z,13.90
2023-03-13T18:45:19.902Z,13.90
2023-03-13T18:47:49.272Z,13.90
2023-03-13T18:50:22.613Z,13.90
2023-03-13T18:52:51.026Z,13.90
2023-03-13T18:55:20.890Z,13.90
2023-03-13T18:57:49.952Z,13.90
2023-03-13T19:00:20.924Z,13.90
2023-03-13T19:02:49.807Z,13.90
2023-03-13T19:05:18.968Z,13.90
2023-03-13T19:07:47.609Z,13.90
2023-03-13T19:10:24.442Z,13.70
2023-03-13T19:12:53.663Z,13.20
2023-03-13T19:15:24.501Z,12.10
2023-03-13T19:17:53.989Z,11.20
2023-03-13T19:20:24.778Z,10.30
2023-03-13T19:22:55.204Z,9.90
2023-03-13T19:25:26.595Z,9.90
2023-03-13T19:27:55.027Z,9.90
2023-03-13T19:30:26.186Z,9.60
2023-03-13T19:32:54.497Z,9.70
2023-03-13T19:35:25.305Z,9.60
2023-03-13T19:37:54.287Z,9.60
2023-03-13T19:40:28.504Z,9.80
2023-03-13T19:42:57.100Z,9.90
2023-03-13T19:45:26.460Z,10.00
2023-03-13T19:47:54.870Z,10.10
2023-03-13T19:50:27.604Z,10.20
2023-03-13T19:52:56.137Z,10.30
2023-03-13T19:55:26.072Z,10.30
2023-03-13T19:57:54.490Z,10.40
2023-03-13T20:00:25.123Z,10.50
2023-03-13T20:02:55.364Z,10.50
2023-03-13T20:05:24.916Z,10.60
2023-03-13T20:07:54.347Z,10.70
2023-03-13T20:10:23.797Z,10.70
2023-03-13T20:12:54.323Z,10.70
2023-03-13T20:15:23.275Z,10.60
2023-03-13T20:17:52.694Z,10.50
2023-03-13T20:20:21.844Z,10.50
2023-03-13T20:22:50.778Z,10.40
2023-03-13T20:25:19.843Z,10.40
2023-03-13T20:27:48.669Z,10.50
2023-03-13T20:30:19.158Z,10.40
2023-03-13T20:32:58.804Z,10.40
2023-03-13T20:35:29.823Z,10.40
2023-03-13T20:38:00.963Z,10.30
2023-03-13T20:40:29.966Z,10.30
2023-03-13T20:42:59.825Z,10.30
2023-03-13T20:45:31.068Z,10.30
2023-03-13T20:47:59.999Z,10.30
2023-03-13T20:50:28.981Z,10.30
2023-03-13T20:52:57.700Z,10.30
2023-03-13T20:55:26.613Z,10.30
2023-03-13T20:57:56.006Z,10.30
2023-03-13T21:00:24.579Z,10.30
2023-03-13T21:02:54.965Z,10.40
2023-03-13T21:05:23.497Z,10.40
2023-03-13T21:07:51.895Z,10.40
2023-03-13T21:10:20.530Z,10.40
2023-03-13T21:12:49.083Z,10.40
2023-03-13T21:15:17.999Z,10.40
2023-03-13T21:17:46.412Z,10.50
2023-03-13T21:20:16.337Z,10.50
2023-03-13T21:22:45.053Z,10.50
2023-03-13T21:25:14.207Z,10.50
2023-03-13T21:27:43.999Z,10.50
2023-03-13T21:30:18.279Z,10.50
2023-03-13T21:32:48.516Z,10.60
2023-03-13T21:35:18.632Z,10.50
2023-03-13T21:37:47.400Z,10.50
2023-03-13T21:40:16.106Z,10.50
2023-03-13T21:42:44.579Z,10.50
2023-03-13T21:45:13.301Z,10.60
2023-03-13T21:47:41.885Z,10.60
2023-03-13T21:50:11.950Z,10.60
2023-03-13T21:52:42.456Z,10.60
2023-03-13T21:55:14.041Z,10.60
2023-03-13T21:57:42.612Z,10.60
2023-03-13T22:00:14.219Z,10.60
2023-03-13T22:02:43.316Z,10.60
2023-03-13T22:05:12.610Z,10.50
2023-03-13T22:07:42.455Z,10.50
2023-03-13T22:10:12.143Z,10.50
2023-03-13T22:12:42.083Z,10.50
2023-03-13T22:15:12.297Z,10.50
2023-03-13T22:17:40.873Z,10.50
2023-03-13T22:20:11.349Z,10.50
2023-03-13T22:22:39.873Z,10.50
2023-03-13T22:25:10.690Z,10.50
2023-03-13T22:27:39.298Z,10.50
2023-03-13T22:30:09.577Z,10.50
2023-03-13T22:32:38.328Z,10.60
2023-03-13T22:35:07.912Z,10.60
2023-03-13T22:37:36.480Z,10.50
2023-03-13T22:40:05.558Z,10.50
2023-03-13T22:42:35.191Z,10.50
2023-03-13T22:45:05.116Z,10.50
2023-03-13T22:47:33.873Z,10.50
2023-03-13T22:50:02.394Z,10.50
2023-03-13T22:52:31.952Z,10.50
2023-03-13T22:55:00.266Z,10.50
2023-03-13T22:57:29.379Z,10.50
2023-03-13T23:00:00.344Z,10.60
2023-03-13T23:02:29.857Z,10.60
2023-03-13T23:05:00.421Z,10.60
2023-03-13T23:07:30.263Z,10.60
2023-03-13T23:10:01.462Z,10.60
2023-03-13T23:12:31.049Z,10.60
2023-03-13T23:15:02.170Z,10.60
2023-03-13T23:17:32.587Z,10.70
2023-03-13T23:20:01.415Z,10.70
2023-03-13T23:22:32.875Z,10.70
2023-03-13T23:25:01.328Z,10.70
2023-03-13T23:27:29.583Z,10.70
2023-03-13T23:29:57.923Z,10.70
2023-03-13T23:32:27.746Z,10.70
2023-03-13T23:34:58.499Z,10.70
2023-03-13T23:37:26.797Z,10.80
2023-03-13T23:39:55.004Z,10.80
2023-03-13T23:42:23.221Z,10.80
2023-03-13T23:44:51.469Z,10.80
2023-03-13T23:47:20.013Z,10.80
2023-03-13T23:49:49.646Z,10.90
2023-03-13T23:52:20.284Z,10.90
2023-03-13T23:54:48.576Z,10.90
2023-03-13T23:57:17.001Z,10.90
2023-03-13T23:59:45.529Z,10.90
